createdAt,value
2023-05-17T00:01:09.226Z,96689.09
2023-05-17T00:03:37.018Z,96694.00
2023-05-17T00:06:05.097Z,96699.66
2023-05-17T00:08:34.365Z,96691.81
2023-05-17T00:11:02.229Z,96693.44
2023-05-17T00:13:29.970Z,96692.84
2023-05-17T00:15:57.795Z,96692.81
2023-05-17T00:18:26.061Z,96700.25
2023-05-17T00:20:54.014Z,96690.88
2023-05-17T00:23:22.022Z,96690.78
2023-05-17T00:25:52.943Z,96691.72
2023-05-17T00:28:20.972Z,96692.56
2023-05-17T00:30:48.740Z,96688.84
2023-05-17T00:33:16.467Z,96691.66
2023-05-17T00:35:44.251Z,96694.69
2023-05-17T00:38:12.241Z,96689.28
2023-05-17T00:40:40.000Z,96694.25
2023-05-17T00:43:10.766Z,96689.34
2023-05-17T00:45:38.884Z,96695.94
2023-05-17T00:48:07.114Z,96694.69
2023-05-17T00:50:35.799Z,96690.03
2023-05-17T00:53:03.571Z,96693.88
2023-05-17T00:55:31.926Z,96694.00
2023-05-17T00:57:59.998Z,96694.84
2023-05-17T01:00:29.746Z,96686.75
2023-05-17T01:02:57.608Z,96695.44
2023-05-17T01:05:28.723Z,96684.38
2023-05-17T01:07:59.125Z,96652.56
2023-05-17T01:10:32.391Z,96697.41
2023-05-17T01:13:07.236Z,96694.28
2023-05-17T01:15:42.436Z,96705.19
2023-05-17T01:18:17.875Z,96698.13
2023-05-17T01:20:47.326Z,96703.16
2023-05-17T01:23:39.132Z,96700.75
2023-05-17T01:26:12.235Z,96704.94
2023-05-17T01:28:42.931Z,96702.78
2023-05-17T01:31:12.589Z,96689.94
2023-05-17T01:33:41.105Z,96696.19
2023-05-17T01:36:09.901Z,96708.06
2023-05-17T01:38:37.725Z,96710.44
2023-05-17T01:41:10.727Z,96711.34
2023-05-17T01:43:47.867Z,96714.78
2023-05-17T01:46:26.014Z,96706.00
2023-05-17T01:49:02.129Z,96706.59
2023-05-17T01:51:33.410Z,96713.75
2023-05-17T01:54:09.574Z,96709.56
2023-05-17T01:56:42.273Z,96710.91
2023-05-17T01:59:15.168Z,96699.41
2023-05-17T02:01:43.746Z,96714.78
2023-05-17T02:04:11.904Z,96716.41
2023-05-17T02:06:39.741Z,96719.56
2023-05-17T02:09:07.614Z,96708.50
2023-05-17T02:11:36.987Z,96715.72
2023-05-17T02:14:04.831Z,96711.78
2023-05-17T02:16:34.035Z,96720.22
2023-05-17T02:19:01.997Z,96716.66
2023-05-17T02:21:29.782Z,96715.91
2023-05-17T02:23:57.659Z,96714.63
2023-05-17T02:26:25.551Z,96710.16
2023-05-17T02:28:53.334Z,96705.66
2023-05-17T02:31:21.289Z,96706.50
2023-05-17T02:33:50.497Z,96711.16
2023-05-17T02:36:18.367Z,96713.84
2023-05-17T02:38:46.229Z,96705.41
2023-05-17T02:41:14.056Z,96702.44
2023-05-17T02:43:41.922Z,96705.50
2023-05-17T02:46:09.667Z,96706.00
2023-05-17T02:48:37.734Z,96707.75
2023-05-17T02:51:07.161Z,96701.69
2023-05-17T02:53:34.997Z,96706.88
2023-05-17T02:56:02.793Z,96703.16
2023-05-17T02:58:30.561Z,96709.72
2023-05-17T03:00:58.796Z,96711.94
2023-05-17T03:03:26.766Z,96717.59
2023-05-17T03:05:54.666Z,96698.38
2023-05-17T03:08:23.776Z,96707.22
2023-05-17T03:10:51.498Z,96720.50
2023-05-17T03:13:20.024Z,96721.25
2023-05-17T03:15:47.822Z,96711.88
2023-05-17T03:18:16.034Z,96723.44
2023-05-17T03:20:44.103Z,96727.47
2023-05-17T03:23:11.928Z,96733.22
2023-05-17T03:25:41.125Z,96733.22
2023-05-17T03:28:08.992Z,96729.09
2023-05-17T03:30:37.379Z,96725.84
2023-05-17T03:33:05.470Z,96747.56
2023-05-17T03:35:33.255Z,96740.25
2023-05-17T03:38:03.807Z,96750.06
2023-05-17T03:40:32.065Z,96757.91
2023-05-17T03:43:01.440Z,96754.56
2023-05-17T03:45:29.431Z,96757.91
2023-05-17T03:47:57.224Z,96739.00
2023-05-17T03:50:25.353Z,96749.41
2023-05-17T03:52:53.132Z,96762.75
2023-05-17T03:55:21.012Z,96749.69
2023-05-17T03:57:48.801Z,96758.28
2023-05-17T04:00:21.798Z,96759.53
2023-05-17T04:02:49.783Z,96750.59
2023-05-17T04:05:17.781Z,96755.34
2023-05-17T04:07:45.734Z,96756.13
2023-05-17T04:10:13.529Z,96751.25
2023-05-17T04:12:41.626Z,96757.19
2023-05-17T04:15:10.265Z,96753.81
2023-05-17T04:17:39.432Z,96753.41
2023-05-17T04:20:08.237Z,96762.16
2023-05-17T04:22:36.093Z,96755.81
2023-05-17T04:25:03.889Z,96755.34
2023-05-17T04:27:32.246Z,96761.28
2023-05-17T04:30:00.025Z,96759.16
2023-05-17T04:32:28.152Z,96764.81
2023-05-17T04:34:57.421Z,96767.69
2023-05-17T04:37:25.206Z,96762.50
2023-05-17T04:39:53.813Z,96770.00
2023-05-17T04:42:21.596Z,96769.41
2023-05-17T04:44:49.377Z,96778.72
2023-05-17T04:47:17.405Z,96773.22
2023-05-17T04:49:45.179Z,96779.44
2023-05-17T04:52:14.624Z,96787.09
2023-05-17T04:54:42.456Z,96777.41
2023-05-17T04:57:10.150Z,96786.16
2023-05-17T04:59:38.235Z,96778.00
2023-05-17T05:02:06.780Z,96788.38
2023-05-17T05:04:34.626Z,96786.13
2023-05-17T05:07:02.445Z,96797.53
2023-05-17T05:09:31.854Z,96793.97
2023-05-17T05:11:59.612Z,96796.16
2023-05-17T05:14:27.325Z,96795.28
2023-05-17T05:16:55.869Z,96788.66
2023-05-17T05:19:23.733Z,96798.84
2023-05-17T05:21:51.595Z,96797.34
2023-05-17T05:24:21.493Z,96803.00
2023-05-17T05:26:50.723Z,96807.31
2023-05-17T05:29:19.216Z,96803.81
2023-05-17T05:31:47.428Z,96808.81
2023-05-17T05:34:15.406Z,96807.69
2023-05-17T05:36:43.224Z,96812.28
2023-05-17T05:39:11.002Z,96811.63
2023-05-17T05:41:38.768Z,96805.75
2023-05-17T05:44:07.937Z,96806.00
2023-05-17T05:46:35.787Z,96808.41
2023-05-17T05:49:03.789Z,96809.53
2023-05-17T05:51:31.756Z,96809.84
2023-05-17T05:54:00.060Z,96816.66
2023-05-17T05:56:28.129Z,96808.00
2023-05-17T05:58:56.470Z,96817.66
2023-05-17T06:01:26.641Z,96827.50
2023-05-17T06:03:54.534Z,96813.78
2023-05-17T06:06:22.459Z,96835.53
2023-05-17T06:08:50.264Z,96822.53
2023-05-17T06:11:20.510Z,96830.16
2023-05-17T06:13:48.277Z,96831.44
2023-05-17T06:16:16.086Z,96843.09
2023-05-17T06:18:46.165Z,96845.31
2023-05-17T06:21:16.261Z,96845.03
2023-05-17T06:23:44.548Z,96842.53
2023-05-17T06:26:12.337Z,96849.34
2023-05-17T06:28:40.161Z,96843.84
2023-05-17T06:31:07.965Z,96837.75
2023-05-17T06:33:36.190Z,96851.50
2023-05-17T06:36:06.069Z,96855.75
2023-05-17T06:38:33.880Z,96861.34
2023-05-17T06:41:01.773Z,96858.41
2023-05-17T06:43:29.518Z,96848.66
2023-05-17T06:45:57.221Z,96855.63
2023-05-17T06:48:25.458Z,96859.97
2023-05-17T06:50:53.403Z,96863.00
2023-05-17T06:53:22.856Z,96859.69
2023-05-17T06:55:50.747Z,96865.22
2023-05-17T06:58:18.477Z,96872.25
2023-05-17T07:00:46.489Z,96877.59
2023-05-17T07:03:14.466Z,96870.31
2023-05-17T07:05:42.520Z,96876.13
2023-05-17T07:08:10.381Z,96881.41
2023-05-17T07:10:39.600Z,96877.22
2023-05-17T07:13:07.440Z,96868.84
2023-05-17T07:15:35.249Z,96864.00
2023-05-17T07:18:03.324Z,96888.28
2023-05-17T07:20:31.950Z,96890.59
2023-05-17T07:22:59.752Z,96878.31
2023-05-17T07:25:28.013Z,96883.22
2023-05-17T07:27:57.451Z,96890.81
2023-05-17T07:30:25.443Z,96891.63
2023-05-17T07:32:53.317Z,96887.81
2023-05-17T07:35:26.211Z,96882.34
2023-05-17T07:37:54.040Z,96889.91
2023-05-17T07:40:22.429Z,96866.91
2023-05-17T07:42:50.170Z,96890.00
2023-05-17T07:45:20.082Z,96891.44
2023-05-17T07:47:48.463Z,96883.81
2023-05-17T07:50:16.298Z,96883.09
2023-05-17T07:52:44.148Z,96885.53
2023-05-17T07:55:12.043Z,96892.06
2023-05-17T07:57:40.190Z,96900.28
2023-05-17T08:00:12.599Z,96903.38
2023-05-17T08:02:42.191Z,96905.50
2023-05-17T08:05:10.926Z,96892.28
2023-05-17T08:07:38.658Z,96896.50
2023-05-17T08:10:07.483Z,96900.88
2023-05-17T08:12:35.472Z,96893.00
2023-05-17T08:15:03.411Z,96895.84
2023-05-17T08:17:31.213Z,96910.44
2023-05-17T08:20:00.600Z,96910.84
2023-05-17T08:22:29.000Z,96885.03
2023-05-17T08:24:57.199Z,96903.44
2023-05-17T08:27:26.129Z,96899.72
2023-05-17T08:29:54.949Z,96906.13
2023-05-17T08:32:23.572Z,96894.38
2023-05-17T08:34:51.801Z,96886.88
2023-05-17T08:37:21.005Z,96899.06
2023-05-17T08:39:50.267Z,96896.81
2023-05-17T08:42:22.730Z,96885.38
2023-05-17T08:44:50.734Z,96912.09
2023-05-17T08:47:26.099Z,96914.31
2023-05-17T08:49:57.666Z,96900.69
2023-05-17T08:52:30.243Z,96910.34
2023-05-17T08:54:58.305Z,96906.38
2023-05-17T08:57:29.358Z,96901.13
2023-05-17T08:59:57.452Z,96900.09
2023-05-17T09:02:25.655Z,96893.44
2023-05-17T09:04:55.804Z,96891.34
2023-05-17T09:07:24.208Z,96899.16
2023-05-17T09:09:54.299Z,96906.84
2023-05-17T09:12:25.413Z,96904.09
2023-05-17T09:14:53.598Z,96907.91
2023-05-17T09:17:22.824Z,96921.88
2023-05-17T09:19:51.898Z,96913.47
2023-05-17T09:22:20.669Z,96904.72
2023-05-17T09:24:48.624Z,96909.09
2023-05-17T09:27:19.765Z,96916.06
2023-05-17T09:29:48.367Z,96899.72
2023-05-17T09:32:18.039Z,96914.22
2023-05-17T09:34:47.149Z,96907.19
2023-05-17T09:37:16.709Z,96909.28
2023-05-17T09:39:46.909Z,96910.56
2023-05-17T09:42:16.813Z,96917.59
2023-05-17T09:44:53.209Z,96917.25
2023-05-17T09:47:25.490Z,96918.75
2023-05-17T09:49:53.907Z,96911.16
2023-05-17T09:52:22.750Z,96900.72
2023-05-17T09:54:54.901Z,96918.03
2023-05-17T09:57:22.748Z,96913.94
2023-05-17T09:59:53.085Z,96915.75
2023-05-17T10:02:29.208Z,96907.38
2023-05-17T10:04:58.562Z,96906.38
2023-05-17T10:07:28.200Z,96918.50
2023-05-17T10:09:57.489Z,96910.34
2023-05-17T10:12:29.594Z,96898.28
2023-05-17T10:15:00.050Z,96929.38
2023-05-17T10:17:30.436Z,96916.53
2023-05-17T10:19:59.278Z,96917.47
2023-05-17T10:22:29.073Z,96909.31
2023-05-17T10:24:58.927Z,96919.97
2023-05-17T10:27:27.955Z,96923.84
2023-05-17T10:29:56.527Z,96920.50
2023-05-17T10:32:28.386Z,96913.69
2023-05-17T10:35:10.422Z,96915.66
2023-05-17T10:37:41.196Z,96907.38
2023-05-17T10:40:13.517Z,96911.94
2023-05-17T10:42:43.711Z,96909.63
2023-05-17T10:45:13.221Z,96913.28
2023-05-17T10:47:46.158Z,96895.53
2023-05-17T10:50:15.108Z,96911.06
2023-05-17T10:52:48.353Z,96901.31
2023-05-17T10:55:20.051Z,96908.28
2023-05-17T10:58:10.453Z,96908.81
2023-05-17T11:00:42.296Z,96909.16
2023-05-17T11:03:16.779Z,96895.22
2023-05-17T11:05:47.799Z,96891.28
2023-05-17T11:08:17.794Z,96895.69
2023-05-17T11:11:11.386Z,96893.72
2023-05-17T11:13:47.411Z,96895.78
2023-05-17T11:16:18.435Z,96890.22
2023-05-17T11:18:52.381Z,96896.66
2023-05-17T11:21:21.812Z,96874.00
2023-05-17T11:23:56.189Z,96889.03
2023-05-17T11:26:29.752Z,96877.25
2023-05-17T11:29:03.435Z,96886.38
2023-05-17T11:31:33.552Z,96883.22
2023-05-17T11:34:04.202Z,96878.19
2023-05-17T11:36:32.886Z,96868.38
2023-05-17T11:39:12.005Z,96867.41
2023-05-17T11:41:41.987Z,96875.72
2023-05-17T11:44:10.143Z,96877.09
2023-05-17T11:46:39.358Z,96874.41
2023-05-17T11:49:10.219Z,96867.41
2023-05-17T11:51:42.265Z,96871.22
2023-05-17T11:54:11.971Z,96888.09
2023-05-17T11:56:43.367Z,96880.94
2023-05-17T11:59:12.597Z,96881.50
2023-05-17T12:01:44.389Z,96885.25
2023-05-17T12:04:14.592Z,96876.78
2023-05-17T12:06:42.749Z,96880.66
2023-05-17T12:09:13.425Z,96882.06
2023-05-17T12:11:43.405Z,96882.06
2023-05-17T12:14:11.308Z,96873.16
2023-05-17T12:16:43.028Z,96867.16
2023-05-17T12:19:20.275Z,96867.72
2023-05-17T12:21:48.443Z,96861.97
2023-05-17T12:24:16.577Z,96861.13
2023-05-17T12:26:46.161Z,96867.75
2023-05-17T12:29:14.892Z,96868.66
2023-05-17T12:31:44.949Z,96869.22
2023-05-17T12:34:14.207Z,96866.91
2023-05-17T12:36:44.308Z,96872.44
2023-05-17T12:39:13.950Z,96876.88
2023-05-17T12:41:42.538Z,96864.97
2023-05-17T12:44:15.438Z,96866.63
2023-05-17T12:46:44.594Z,96855.13
2023-05-17T12:49:13.015Z,96867.47
2023-05-17T12:51:44.144Z,96867.56
2023-05-17T12:54:12.808Z,96864.81
2023-05-17T12:56:43.874Z,96873.78
2023-05-17T12:59:13.974Z,96863.59
2023-05-17T13:01:44.783Z,96860.06
2023-05-17T13:04:13.518Z,96862.38
2023-05-17T13:06:47.255Z,96856.50
2023-05-17T13:09:15.512Z,96867.03
2023-05-17T13:11:43.517Z,96868.72
2023-05-17T13:14:13.017Z,96845.06
2023-05-17T13:16:41.448Z,96858.81
2023-05-17T13:19:15.953Z,96860.31
2023-05-17T13:21:43.730Z,96864.81
2023-05-17T13:24:12.821Z,96866.38
2023-05-17T13:26:40.763Z,96859.34
2023-05-17T13:29:08.670Z,96855.69
2023-05-17T13:31:36.512Z,96847.41
2023-05-17T13:34:04.542Z,96840.66
2023-05-17T13:36:32.446Z,96858.78
2023-05-17T13:39:02.022Z,96851.00
2023-05-17T13:41:31.348Z,96852.84
2023-05-17T13:43:59.243Z,96837.00
2023-05-17T13:46:27.083Z,96847.50
2023-05-17T13:48:55.039Z,96841.75
2023-05-17T13:51:23.049Z,96848.06
2023-05-17T13:53:50.865Z,96853.97
2023-05-17T13:56:18.985Z,96851.03
2023-05-17T13:58:48.325Z,96837.94
2023-05-17T14:01:18.609Z,96831.22
2023-05-17T14:03:46.606Z,96844.16
2023-05-17T14:06:14.666Z,96820.78
2023-05-17T14:08:42.419Z,96833.03
2023-05-17T14:11:10.272Z,96830.34
2023-05-17T14:13:38.310Z,96828.53
2023-05-17T14:16:08.213Z,96822.63
2023-05-17T14:18:36.256Z,96825.59
2023-05-17T14:21:04.259Z,96814.00
2023-05-17T14:23:32.018Z,96816.50
2023-05-17T14:25:59.878Z,96816.75
2023-05-17T14:28:27.813Z,96817.13
2023-05-17T14:30:55.619Z,96823.34
2023-05-17T14:33:25.653Z,96823.81
2023-05-17T14:35:53.540Z,96825.28
2023-05-17T14:38:22.414Z,96824.38
2023-05-17T14:40:50.210Z,96823.91
2023-05-17T14:43:19.362Z,96825.78
2023-05-17T14:45:47.353Z,96825.94
2023-05-17T14:48:15.288Z,96822.16
2023-05-17T14:50:44.572Z,96822.28
2023-05-17T14:53:12.551Z,96826.31
2023-05-17T14:55:40.421Z,96823.75
2023-05-17T14:58:08.219Z,96809.41
2023-05-17T15:00:36.083Z,96815.38
2023-05-17T15:03:04.166Z,96817.31
2023-05-17T15:05:32.265Z,96822.91
2023-05-17T15:08:01.643Z,96824.56
2023-05-17T15:10:30.060Z,96823.19
2023-05-17T15:12:57.904Z,96816.06
2023-05-17T15:15:25.713Z,96820.38
2023-05-17T15:17:54.174Z,96820.22
2023-05-17T15:20:22.412Z,96817.06
2023-05-17T15:22:50.204Z,96823.53
2023-05-17T15:25:19.514Z,96825.34
2023-05-17T15:27:49.309Z,96815.88
2023-05-17T15:30:17.311Z,96811.88
2023-05-17T15:32:45.218Z,96830.34
2023-05-17T15:35:13.537Z,96819.03
2023-05-17T15:37:41.329Z,96824.34
2023-05-17T15:40:10.841Z,96831.44
2023-05-17T15:42:40.217Z,96828.53
2023-05-17T15:45:09.243Z,96825.78
2023-05-17T15:47:42.967Z,96824.91
2023-05-17T15:50:12.446Z,96833.84
2023-05-17T15:52:40.270Z,96829.72
2023-05-17T15:55:09.398Z,96822.16
2023-05-17T15:57:37.219Z,96826.25
2023-05-17T16:00:07.921Z,96817.88
2023-05-17T16:02:35.739Z,96825.94
2023-05-17T16:05:04.215Z,96819.50
2023-05-17T16:07:32.549Z,96828.28
2023-05-17T16:10:00.473Z,96822.31
2023-05-17T16:12:28.326Z,96825.78
2023-05-17T16:14:56.161Z,96831.34
2023-05-17T16:17:25.491Z,96833.72
2023-05-17T16:19:53.382Z,96817.47
2023-05-17T16:22:21.616Z,96834.09
2023-05-17T16:24:53.668Z,96825.63
2023-05-17T16:27:21.265Z,96828.44
2023-05-17T16:29:49.041Z,96819.94
2023-05-17T16:32:16.942Z,96825.97
2023-05-17T16:34:46.081Z,96815.44
2023-05-17T16:37:14.012Z,96809.34
2023-05-17T16:39:42.023Z,96823.19
2023-05-17T16:42:09.898Z,96816.59
2023-05-17T16:44:38.204Z,96826.72
2023-05-17T16:47:06.565Z,96821.31
2023-05-17T16:49:36.414Z,96815.88
2023-05-17T16:52:06.271Z,96819.84
2023-05-17T16:54:35.542Z,96820.47
2023-05-17T16:57:06.543Z,96813.81
2023-05-17T16:59:36.221Z,96829.41
2023-05-17T17:02:04.537Z,96818.94
2023-05-17T17:04:34.301Z,96824.97
2023-05-17T17:07:02.554Z,96820.81
2023-05-17T17:09:32.483Z,96815.56
2023-05-17T17:12:04.574Z,96802.09
2023-05-17T17:14:37.873Z,96806.25
2023-05-17T17:17:06.090Z,96814.19
2023-05-17T17:19:34.254Z,96806.78
2023-05-17T17:22:05.468Z,96816.72
2023-05-17T17:24:35.497Z,96817.94
2023-05-17T17:27:03.312Z,96815.56
2023-05-17T17:29:32.530Z,96817.97
2023-05-17T17:32:00.875Z,96819.34
2023-05-17T17:34:30.785Z,96821.88
2023-05-17T17:36:58.984Z,96818.06
2023-05-17T17:39:26.832Z,96822.63
2023-05-17T17:41:56.001Z,96826.19
2023-05-17T17:44:23.991Z,96823.41
2023-05-17T17:46:51.959Z,96820.06
2023-05-17T17:49:19.785Z,96816.81
2023-05-17T17:51:47.931Z,96822.84
2023-05-17T17:54:15.723Z,96830.03
2023-05-17T17:56:43.652Z,96832.22
2023-05-17T17:59:13.745Z,96824.16
2023-05-17T18:01:41.670Z,96833.66
2023-05-17T18:04:11.133Z,96825.63
2023-05-17T18:06:40.094Z,96828.56
2023-05-17T18:09:08.155Z,96832.16
2023-05-17T18:11:36.312Z,96836.16
2023-05-17T18:14:04.482Z,96822.63
2023-05-17T18:16:33.700Z,96840.00
2023-05-17T18:19:01.867Z,96817.81
2023-05-17T18:21:30.281Z,96829.88
2023-05-17T18:23:58.574Z,96771.22
2023-05-17T18:26:26.425Z,96837.16
2023-05-17T18:28:54.295Z,96832.63
2023-05-17T18:31:22.096Z,96823.31
2023-05-17T18:33:51.582Z,96833.91
2023-05-17T18:36:19.589Z,96829.50
2023-05-17T18:38:47.292Z,96840.34
2023-05-17T18:41:17.744Z,96838.81
2023-05-17T18:43:45.640Z,96843.56
2023-05-17T18:46:13.457Z,96849.03
2023-05-17T18:48:41.492Z,96822.50
2023-05-17T18:51:12.862Z,96846.84
2023-05-17T18:53:40.938Z,96834.19
2023-05-17T18:56:08.801Z,96829.72
2023-05-17T18:58:36.602Z,96840.69
2023-05-17T19:01:04.512Z,96837.31
2023-05-17T19:03:32.442Z,96842.69
2023-05-17T19:06:00.309Z,96856.81
2023-05-17T19:08:29.454Z,96846.78
2023-05-17T19:10:57.339Z,96857.03
2023-05-17T19:13:27.115Z,96849.22
2023-05-17T19:15:54.980Z,96852.63
2023-05-17T19:18:22.876Z,96858.34
2023-05-17T19:20:50.941Z,96858.94
2023-05-17T19:23:18.779Z,96853.56
2023-05-17T19:25:48.468Z,96868.50
2023-05-17T19:28:16.321Z,96862.44
2023-05-17T19:30:44.121Z,96873.97
2023-05-17T19:33:12.393Z,96878.06
2023-05-17T19:35:40.943Z,96881.31
2023-05-17T19:38:09.735Z,96862.31
2023-05-17T19:40:38.496Z,96850.78
2023-05-17T19:43:07.943Z,96878.41
2023-05-17T19:45:35.757Z,96883.66
2023-05-17T19:48:07.295Z,96882.47
2023-05-17T19:50:35.598Z,96876.06
2023-05-17T19:53:03.559Z,96884.59
2023-05-17T19:55:31.523Z,96881.31
2023-05-17T19:57:59.402Z,96884.34
2023-05-17T20:00:28.837Z,96872.00
2023-05-17T20:02:57.857Z,96889.94
2023-05-17T20:05:27.338Z,96887.34
2023-05-17T20:07:55.309Z,96882.38
2023-05-17T20:10:23.228Z,96878.50
2023-05-17T20:12:51.059Z,96885.41
2023-05-17T20:15:18.881Z,96882.91
2023-05-17T20:17:48.395Z,96887.34
2023-05-17T20:20:16.280Z,96896.13
2023-05-17T20:22:44.899Z,96889.00
2023-05-17T20:25:12.801Z,96891.56
2023-05-17T20:27:40.636Z,96894.59
2023-05-17T20:30:09.966Z,96891.91
2023-05-17T20:32:37.853Z,96894.81
2023-05-17T20:35:08.333Z,96898.56
2023-05-17T20:37:36.306Z,96884.78
2023-05-17T20:40:08.961Z,96894.31
2023-05-17T20:42:38.051Z,96902.69
2023-05-17T20:45:07.242Z,96900.50
2023-05-17T20:47:36.660Z,96903.75
2023-05-17T20:50:06.168Z,96902.56
2023-05-17T20:52:39.372Z,96913.16
2023-05-17T20:55:09.990Z,96913.16
2023-05-17T20:57:37.830Z,96908.91
2023-05-17T21:00:08.209Z,96908.53
2023-05-17T21:02:36.101Z,96906.16
2023-05-17T21:05:04.932Z,96913.63
2023-05-17T21:07:32.767Z,96917.91
2023-05-17T21:10:01.957Z,96905.31
2023-05-17T21:12:30.041Z,96918.38
2023-05-17T21:15:14.435Z,96910.84
2023-05-17T21:17:43.550Z,96908.81
2023-05-17T21:20:12.730Z,96907.31
2023-05-17T21:22:40.639Z,96912.81
2023-05-17T21:25:11.020Z,96907.31
2023-05-17T21:27:38.852Z,96904.91
2023-05-17T21:30:07.821Z,96906.31
2023-05-17T21:32:35.917Z,96903.66
2023-05-17T21:35:03.879Z,96904.91
2023-05-17T21:37:31.695Z,96906.25
2023-05-17T21:39:59.595Z,96901.38
2023-05-17T21:42:28.733Z,96897.97
2023-05-17T21:44:56.535Z,96902.31
2023-05-17T21:47:24.983Z,96914.28
2023-05-17T21:49:53.187Z,96908.78
2023-05-17T21:52:21.166Z,96905.06
2023-05-17T21:54:49.651Z,96900.91
2023-05-17T21:57:20.754Z,96901.06
2023-05-17T21:59:51.387Z,96904.91
2023-05-17T22:02:22.727Z,96885.88
2023-05-17T22:04:50.550Z,96888.28
2023-05-17T22:07:18.309Z,96900.88
2023-05-17T22:09:46.749Z,96895.94
2023-05-17T22:12:17.304Z,96883.72
2023-05-17T22:14:45.436Z,96888.84
2023-05-17T22:17:16.047Z,96884.31
2023-05-17T22:19:45.330Z,96891.22
2023-05-17T22:22:13.389Z,96884.44
2023-05-17T22:24:41.176Z,96886.06
2023-05-17T22:27:09.029Z,96880.78
2023-05-17T22:29:38.393Z,96886.22
2023-05-17T22:32:06.735Z,96876.41
2023-05-17T22:34:38.078Z,96874.41
2023-05-17T22:37:07.434Z,96874.41
2023-05-17T22:39:35.464Z,96883.59
2023-05-17T22:42:03.311Z,96879.34
2023-05-17T22:44:31.983Z,96864.84
2023-05-17T22:47:02.252Z,96868.06
2023-05-17T22:49:30.448Z,96855.22
2023-05-17T22:52:05.303Z,96864.66
2023-05-17T22:54:33.766Z,96861.59
2023-05-17T22:57:01.909Z,96853.28
2023-05-17T22:59:30.204Z,96856.97
2023-05-17T23:01:59.001Z,96844.06
2023-05-17T23:04:27.375Z,96844.06
2023-05-17T23:06:55.360Z,96839.34
2023-05-17T23:09:24.727Z,96841.03
2023-05-17T23:11:52.528Z,96825.91
2023-05-17T23:14:22.002Z,96820.81
2023-05-17T23:16:50.313Z,96827.34
2023-05-17T23:19:18.357Z,96828.75
2023-05-17T23:21:46.486Z,96831.25
2023-05-17T23:24:14.916Z,96826.38
2023-05-17T23:26:44.032Z,96819.56
2023-05-17T23:29:12.617Z,96778.50
2023-05-17T23:31:41.489Z,96812.22
2023-05-17T23:34:09.510Z,96814.13
2023-05-17T23:36:37.307Z,96806.75
2023-05-17T23:39:05.337Z,96803.63
2023-05-17T23:41:33.354Z,96793.31
2023-05-17T23:44:02.570Z,96795.28
2023-05-17T23:46:30.453Z,96787.94
2023-05-17T23:48:58.236Z,96789.16
2023-05-17T23:51:26.129Z,96790.47
2023-05-17T23:53:53.925Z,96789.59
2023-05-17T23:56:23.100Z,96788.94
2023-05-17T23:58:50.995Z,96790.66
